createdAt,value
2022-10-15T00:02:29.510Z,56.08
2022-10-15T00:05:15.277Z,52.60
2022-10-15T00:08:00.919Z,57.53
2022-10-15T00:10:46.733Z,62.20
2022-10-15T00:13:33.376Z,58.50
2022-10-15T00:16:21.701Z,57.40
2022-10-15T00:19:07.613Z,57.05
2022-10-15T00:21:53.359Z,54.45
2022-10-15T00:24:39.184Z,56.08
2022-10-15T00:27:25.062Z,57.47
2022-10-15T00:30:11.452Z,59.13
2022-10-15T00:32:56.966Z,54.65
2022-10-15T00:35:42.655Z,56.47
2022-10-15T00:38:28.905Z,64.57
2022-10-15T00:41:25.638Z,57.28
2022-10-15T00:44:28.838Z,52.90
2022-10-15T00:47:34.636Z,64.68
2022-10-15T00:50:23.489Z,59.58
2022-10-15T00:53:10.029Z,61.60
2022-10-15T00:55:55.425Z,57.17
2022-10-15T00:58:42.813Z,61.53
2022-10-15T01:01:29.543Z,63.63
2022-10-15T01:04:17.670Z,61.90
2022-10-15T01:07:03.745Z,64.75
2022-10-15T01:09:49.515Z,63.75
2022-10-15T01:12:57.797Z,58.90
2022-10-15T01:16:01.962Z,58.22
2022-10-15T01:19:01.797Z,56.47
2022-10-15T01:22:03.257Z,59.13
2022-10-15T01:25:14.253Z,64.13
2022-10-15T01:28:12.085Z,60.55
2022-10-15T01:31:15.802Z,63.75
2022-10-15T01:37:29.074Z,59.30
2022-10-15T01:40:42.398Z,61.75
2022-10-15T01:43:39.866Z,60.83
2022-10-15T01:46:54.979Z,55.35
2022-10-15T01:49:44.134Z,64.55
2022-10-15T01:52:32.561Z,57.13
2022-10-15T01:55:21.387Z,60.05
2022-10-15T01:58:10.099Z,63.53
2022-10-15T02:00:58.233Z,57.25
2022-10-15T02:03:47.313Z,60.05
2022-10-15T02:06:40.041Z,62.50
2022-10-15T02:09:49.867Z,57.00
2022-10-15T02:12:42.330Z,71.00
2022-10-15T02:15:44.334Z,60.15
2022-10-15T02:18:55.118Z,58.20
2022-10-15T02:22:02.246Z,60.67
2022-10-15T02:24:56.732Z,62.13
2022-10-15T02:27:44.906Z,57.47
2022-10-15T02:30:31.396Z,59.10
2022-10-15T02:33:18.953Z,68.60
2022-10-15T02:36:08.482Z,67.72
2022-10-15T02:38:56.773Z,64.93
2022-10-15T02:41:43.219Z,62.17
2022-10-15T02:44:32.001Z,74.10
2022-10-15T02:47:18.100Z,70.88
2022-10-15T02:50:04.426Z,70.20
2022-10-15T02:52:49.994Z,70.07
2022-10-15T02:55:36.822Z,63.38
2022-10-15T02:58:22.557Z,64.10
2022-10-15T03:01:08.388Z,77.63
2022-10-15T03:03:54.133Z,66.88
2022-10-15T03:06:40.109Z,61.05
2022-10-15T03:09:25.929Z,65.15
2022-10-15T03:12:11.672Z,63.15
2022-10-15T03:14:57.587Z,63.53
2022-10-15T03:17:43.600Z,66.20
2022-10-15T03:20:29.703Z,60.00
2022-10-15T03:23:15.488Z,65.68
2022-10-15T03:26:03.098Z,71.53
2022-10-15T03:28:48.557Z,66.50
2022-10-15T03:31:46.610Z,63.60
2022-10-15T03:34:32.339Z,66.05
2022-10-15T03:37:19.153Z,64.10
2022-10-15T03:40:08.239Z,63.83
2022-10-15T03:42:56.573Z,64.93
2022-10-15T03:45:43.793Z,75.07
2022-10-15T03:48:36.428Z,65.43
2022-10-15T03:51:24.620Z,70.05
2022-10-15T03:54:18.743Z,67.80
2022-10-15T03:57:09.567Z,67.00
2022-10-15T04:00:02.035Z,65.07
2022-10-15T04:02:57.631Z,64.60
2022-10-15T04:05:53.858Z,65.13
2022-10-15T04:08:42.739Z,61.60
2022-10-15T04:11:46.402Z,71.05
2022-10-15T04:14:33.223Z,68.13
2022-10-15T04:17:20.507Z,65.65
2022-10-15T04:20:08.289Z,61.65
2022-10-15T04:22:53.931Z,72.25
2022-10-15T04:25:39.692Z,77.38
2022-10-15T04:28:27.389Z,78.05
2022-10-15T04:31:13.352Z,74.63
2022-10-15T04:33:59.366Z,73.10
2022-10-15T04:36:46.211Z,72.20
2022-10-15T04:39:36.262Z,76.68
2022-10-15T04:42:22.030Z,67.95
2022-10-15T04:45:08.737Z,72.78
2022-10-15T04:47:54.678Z,73.68
2022-10-15T04:50:40.762Z,67.30
2022-10-15T04:53:38.890Z,68.15
2022-10-15T04:56:24.985Z,78.43
2022-10-15T04:59:11.837Z,69.40
2022-10-15T05:02:16.786Z,72.03
2022-10-15T05:05:05.345Z,74.28
2022-10-15T05:07:51.562Z,71.93
2022-10-15T05:10:37.289Z,72.10
2022-10-15T05:13:25.431Z,75.20
2022-10-15T05:16:19.122Z,72.38
2022-10-15T05:19:06.670Z,68.68
2022-10-15T05:21:54.376Z,64.28
2022-10-15T05:24:43.695Z,65.53
2022-10-15T05:27:51.873Z,73.57
2022-10-15T05:30:37.580Z,77.10
2022-10-15T05:33:23.747Z,68.90
2022-10-15T05:36:39.063Z,63.50
2022-10-15T05:39:25.186Z,68.35
2022-10-15T05:42:13.118Z,73.22
2022-10-15T05:45:09.775Z,67.63
2022-10-15T05:47:56.046Z,76.93
2022-10-15T05:50:41.787Z,70.35
2022-10-15T05:53:31.147Z,69.88
2022-10-15T05:56:24.081Z,64.90
2022-10-15T05:59:10.125Z,75.32
2022-10-15T06:01:55.723Z,68.15
2022-10-15T06:04:42.389Z,69.07
2022-10-15T06:07:28.021Z,69.63
2022-10-15T06:10:13.520Z,69.72
2022-10-15T06:12:59.013Z,70.80
2022-10-15T06:15:46.152Z,74.95
2022-10-15T06:18:32.396Z,73.70
2022-10-15T06:21:20.405Z,63.20
2022-10-15T06:24:09.150Z,64.07
2022-10-15T06:26:55.813Z,67.13
2022-10-15T06:29:41.725Z,66.63
2022-10-15T06:32:27.477Z,59.50
2022-10-15T06:35:13.149Z,56.17
2022-10-15T06:38:03.106Z,54.72
2022-10-15T06:40:50.204Z,69.07
2022-10-15T06:43:36.262Z,61.92
2022-10-15T06:46:22.034Z,61.08
2022-10-15T06:49:07.806Z,57.30
2022-10-15T06:51:53.949Z,65.43
2022-10-15T06:54:39.678Z,56.78
2022-10-15T06:57:28.949Z,62.65
2022-10-15T07:00:14.879Z,66.93
2022-10-15T07:03:07.134Z,58.45
2022-10-15T07:05:52.843Z,55.83
2022-10-15T07:08:38.557Z,67.60
2022-10-15T07:11:24.601Z,62.15
2022-10-15T07:14:10.317Z,63.33
2022-10-15T07:16:55.950Z,60.05
2022-10-15T07:19:41.762Z,66.88
2022-10-15T07:22:27.392Z,60.22
2022-10-15T07:25:13.258Z,59.97
2022-10-15T07:28:01.490Z,66.55
2022-10-15T07:30:47.370Z,58.40
2022-10-15T07:33:34.612Z,68.70
2022-10-15T07:36:20.872Z,60.30
2022-10-15T07:39:06.525Z,68.57
2022-10-15T07:41:53.351Z,64.45
2022-10-15T07:44:38.836Z,58.22
2022-10-15T07:47:28.457Z,65.38
2022-10-15T07:50:14.039Z,65.43
2022-10-15T07:53:00.218Z,62.85
2022-10-15T07:55:45.975Z,54.67
2022-10-15T07:58:34.509Z,59.38
2022-10-15T08:01:21.672Z,58.22
2022-10-15T08:04:07.586Z,61.90
2022-10-15T08:06:56.918Z,58.80
2022-10-15T08:09:42.559Z,62.65
2022-10-15T08:12:28.611Z,63.78
2022-10-15T08:15:13.992Z,48.97
2022-10-15T08:17:59.898Z,52.78
2022-10-15T08:20:45.610Z,56.97
2022-10-15T08:23:31.035Z,58.95
2022-10-15T08:26:16.843Z,56.70
2022-10-15T08:29:02.530Z,49.45
2022-10-15T08:31:49.384Z,53.15
2022-10-15T08:34:37.414Z,57.38
2022-10-15T08:37:23.074Z,58.70
2022-10-15T08:40:12.390Z,57.85
2022-10-15T08:42:58.593Z,62.78
2022-10-15T08:45:48.745Z,45.33
2022-10-15T08:48:37.923Z,63.15
2022-10-15T08:51:28.004Z,64.55
2022-10-15T08:54:17.693Z,61.30
2022-10-15T08:57:33.501Z,54.50
2022-10-15T09:00:24.259Z,63.20
2022-10-15T09:03:18.114Z,68.85
2022-10-15T09:06:25.123Z,53.70
2022-10-15T09:09:33.962Z,52.45
2022-10-15T09:12:36.247Z,40.53
2022-10-15T09:15:27.707Z,44.07
2022-10-15T09:18:23.806Z,32.67
2022-10-15T09:21:11.449Z,41.40
2022-10-15T09:24:02.996Z,37.40
2022-10-15T09:27:20.408Z,38.53
2022-10-15T09:30:48.114Z,49.15
2022-10-15T09:33:33.871Z,44.33
2022-10-15T09:36:35.490Z,29.83
2022-10-15T09:39:30.530Z,38.97
2022-10-15T09:42:31.162Z,33.92
2022-10-15T09:45:17.186Z,32.60
2022-10-15T09:48:17.779Z,34.33
2022-10-15T09:51:19.882Z,50.90
2022-10-15T09:54:23.045Z,53.92
2022-10-15T09:57:11.560Z,41.80
2022-10-15T10:00:01.426Z,41.10
2022-10-15T10:03:06.986Z,49.42
2022-10-15T10:06:11.203Z,43.78
2022-10-15T10:09:01.079Z,58.53
2022-10-15T10:11:50.899Z,59.85
2022-10-15T10:14:42.957Z,69.03
2022-10-15T10:17:29.838Z,73.43
2022-10-15T10:20:21.222Z,85.35
2022-10-15T10:23:24.841Z,109.13
2022-10-15T10:29:04.997Z,95.78
2022-10-15T10:32:09.502Z,85.50
2022-10-15T10:34:56.082Z,82.85
2022-10-15T10:37:44.670Z,79.60
2022-10-15T10:40:36.095Z,99.28
2022-10-15T10:43:28.992Z,102.63
2022-10-15T10:46:14.896Z,102.80
2022-10-15T10:49:05.670Z,84.15
2022-10-15T10:51:51.347Z,93.20
2022-10-15T10:54:37.750Z,89.85
2022-10-15T10:57:34.973Z,97.43
2022-10-15T11:00:49.824Z,87.82
2022-10-15T11:03:39.405Z,107.50
2022-10-15T11:06:46.324Z,109.43
2022-10-15T11:10:03.575Z,93.80
2022-10-15T11:12:52.342Z,85.78
2022-10-15T11:16:06.820Z,103.78
2022-10-15T11:19:50.478Z,99.03
2022-10-15T11:25:18.735Z,87.40
2022-10-15T11:28:29.761Z,115.22
2022-10-15T11:32:02.410Z,106.75
2022-10-15T11:35:52.329Z,112.53
2022-10-15T11:38:51.770Z,101.97
2022-10-15T11:42:06.424Z,98.32
2022-10-15T11:45:19.039Z,115.80
2022-10-15T11:48:16.301Z,102.43
2022-10-15T11:51:01.853Z,120.00
2022-10-15T11:53:57.014Z,106.40
2022-10-15T11:56:52.267Z,119.18
2022-10-15T11:59:43.331Z,103.88
2022-10-15T12:02:37.699Z,112.38
2022-10-15T12:05:39.986Z,113.95
2022-10-15T12:08:30.192Z,100.68
2022-10-15T12:11:34.452Z,100.88
2022-10-15T12:14:29.505Z,108.65
2022-10-15T12:17:40.361Z,98.38
2022-10-15T12:20:27.187Z,97.20
2022-10-15T12:23:38.835Z,107.63
2022-10-15T12:26:24.990Z,99.68
2022-10-15T12:29:21.412Z,85.82
2022-10-15T12:32:25.591Z,89.30
2022-10-15T12:35:14.814Z,99.60
2022-10-15T12:38:36.964Z,100.93
2022-10-15T12:41:34.143Z,106.93
2022-10-15T12:44:30.164Z,112.72
2022-10-15T12:47:15.610Z,99.43
2022-10-15T12:50:06.719Z,111.13
2022-10-15T12:53:05.702Z,97.68
2022-10-15T12:56:09.997Z,102.10
2022-10-15T12:59:00.493Z,95.88
2022-10-15T13:01:46.098Z,88.40
2022-10-15T13:04:39.769Z,87.32
2022-10-15T13:07:26.065Z,83.22
2022-10-15T13:10:27.765Z,79.57
2022-10-15T13:13:19.035Z,84.18
2022-10-15T13:16:13.885Z,84.20
2022-10-15T13:19:00.422Z,102.63
2022-10-15T13:21:59.890Z,95.18
2022-10-15T13:24:49.676Z,97.70
2022-10-15T13:27:39.786Z,107.38
2022-10-15T13:30:25.697Z,86.80
2022-10-15T13:33:12.263Z,78.97
2022-10-15T13:36:36.372Z,77.38
2022-10-15T13:39:57.013Z,76.50
2022-10-15T13:43:00.064Z,75.88
2022-10-15T13:45:50.966Z,77.53
2022-10-15T13:51:35.286Z,93.10
2022-10-15T13:54:24.714Z,92.18
2022-10-15T13:57:17.852Z,94.63
2022-10-15T14:00:04.707Z,73.18
2022-10-15T14:03:16.372Z,77.53
2022-10-15T14:06:15.862Z,71.75
2022-10-15T14:09:24.265Z,73.70
2022-10-15T14:12:11.694Z,83.80
2022-10-15T14:15:37.626Z,69.45
2022-10-15T14:18:34.344Z,79.22
2022-10-15T14:21:28.673Z,57.08
2022-10-15T14:24:20.892Z,56.83
2022-10-15T14:27:27.591Z,80.50
2022-10-15T14:30:25.922Z,90.05
2022-10-15T14:33:33.301Z,66.80
2022-10-15T14:36:21.849Z,65.80
2022-10-15T14:39:26.348Z,61.88
2022-10-15T14:42:32.830Z,67.93
2022-10-15T14:45:18.388Z,74.20
2022-10-15T14:48:19.282Z,71.53
2022-10-15T14:51:12.377Z,66.40
2022-10-15T14:53:59.008Z,42.25
2022-10-15T14:56:44.510Z,46.90
2022-10-15T14:59:36.076Z,51.72
2022-10-15T15:02:25.013Z,64.88
2022-10-15T15:05:11.070Z,74.85
2022-10-15T15:07:57.864Z,77.97
2022-10-15T15:10:44.689Z,77.38
2022-10-15T15:13:38.025Z,66.00
2022-10-15T15:19:09.362Z,72.35
2022-10-15T15:21:55.902Z,64.55
2022-10-15T15:24:41.802Z,57.60
2022-10-15T15:27:37.117Z,61.50
2022-10-15T15:30:26.183Z,58.90
2022-10-15T15:33:13.973Z,58.78
2022-10-15T15:36:02.942Z,56.97
2022-10-15T15:38:48.512Z,71.28
2022-10-15T15:41:34.165Z,64.05
2022-10-15T15:44:19.902Z,56.60
2022-10-15T15:47:05.646Z,48.58
2022-10-15T15:49:51.335Z,44.80
2022-10-15T15:52:37.979Z,51.40
2022-10-15T15:55:26.331Z,64.50
2022-10-15T15:58:12.206Z,67.50
2022-10-15T16:00:58.121Z,56.75
2022-10-15T16:03:43.598Z,63.90
2022-10-15T16:06:29.393Z,59.40
2022-10-15T16:09:20.210Z,51.85
2022-10-15T16:12:05.842Z,59.72
2022-10-15T16:14:51.640Z,62.67
2022-10-15T16:17:38.319Z,60.42
2022-10-15T16:20:24.273Z,65.47
2022-10-15T16:23:09.743Z,54.85
2022-10-15T16:25:57.585Z,47.90
2022-10-15T16:28:43.391Z,39.90
2022-10-15T16:31:29.490Z,36.03
2022-10-15T16:34:16.114Z,37.67
2022-10-15T16:37:01.719Z,38.33
2022-10-15T16:39:47.418Z,48.58
2022-10-15T16:42:33.007Z,56.65
2022-10-15T16:45:18.492Z,52.85
2022-10-15T16:48:04.332Z,67.05
2022-10-15T16:51:03.155Z,64.30
2022-10-15T16:53:49.652Z,58.17
2022-10-15T16:56:35.547Z,53.85
2022-10-15T16:59:21.258Z,57.58
2022-10-15T17:02:07.157Z,61.25
2022-10-15T17:04:53.332Z,47.42
2022-10-15T17:07:39.116Z,63.47
2022-10-15T17:10:25.780Z,50.50
2022-10-15T17:13:11.716Z,59.15
2022-10-15T17:16:06.831Z,70.43
2022-10-15T17:18:53.221Z,68.93
2022-10-15T17:21:42.363Z,78.97
2022-10-15T17:24:29.168Z,77.40
2022-10-15T17:27:14.667Z,76.40
2022-10-15T17:30:01.507Z,68.15
2022-10-15T17:32:49.511Z,63.70
2022-10-15T17:35:38.357Z,68.80
2022-10-15T17:38:23.863Z,69.78
2022-10-15T17:41:18.717Z,73.55
2022-10-15T17:44:04.901Z,84.70
2022-10-15T17:46:52.374Z,68.85
2022-10-15T17:49:41.591Z,75.78
2022-10-15T17:52:28.482Z,69.32
2022-10-15T17:55:14.186Z,67.80
2022-10-15T17:58:00.162Z,75.40
2022-10-15T18:00:56.762Z,75.55
2022-10-15T18:03:42.698Z,69.95
2022-10-15T18:06:28.671Z,77.47
2022-10-15T18:09:14.246Z,80.28
2022-10-15T18:12:01.033Z,71.28
2022-10-15T18:14:48.475Z,76.15
2022-10-15T18:17:40.164Z,72.95
2022-10-15T18:20:25.750Z,73.68
2022-10-15T18:23:12.196Z,83.90
2022-10-15T18:26:07.007Z,70.22
2022-10-15T18:28:54.398Z,75.43
2022-10-15T18:31:40.533Z,70.90
2022-10-15T18:34:27.041Z,69.35
2022-10-15T18:37:12.685Z,80.28
2022-10-15T18:39:58.369Z,72.35
2022-10-15T18:42:47.645Z,77.80
2022-10-15T18:45:39.964Z,74.05
2022-10-15T18:48:30.679Z,72.80
2022-10-15T18:51:18.866Z,71.78
2022-10-15T18:54:04.657Z,75.15
2022-10-15T18:56:52.457Z,72.82
2022-10-15T18:59:38.562Z,71.95
2022-10-15T19:02:24.530Z,80.70
2022-10-15T19:05:10.470Z,78.53
2022-10-15T19:07:56.228Z,74.38
2022-10-15T19:10:41.675Z,77.05
2022-10-15T19:13:27.402Z,76.03
2022-10-15T19:16:13.155Z,81.63
2022-10-15T19:19:00.163Z,70.07
2022-10-15T19:21:47.077Z,84.13
2022-10-15T19:24:32.717Z,76.57
2022-10-15T19:27:18.581Z,78.18
2022-10-15T19:30:07.899Z,87.20
2022-10-15T19:32:53.833Z,76.70
2022-10-15T19:35:43.361Z,77.78
2022-10-15T19:38:29.255Z,81.95
2022-10-15T19:41:14.738Z,79.45
2022-10-15T19:44:02.311Z,83.40
2022-10-15T19:46:48.321Z,74.88
2022-10-15T19:49:34.346Z,71.70
2022-10-15T19:52:19.867Z,74.75
2022-10-15T19:55:10.211Z,82.78
2022-10-15T19:57:55.719Z,75.45
2022-10-15T20:00:41.353Z,88.28
2022-10-15T20:03:29.444Z,81.72
2022-10-15T20:06:14.977Z,70.80
2022-10-15T20:09:02.157Z,76.13
2022-10-15T20:11:47.666Z,77.28
2022-10-15T20:14:33.779Z,71.78
2022-10-15T20:17:19.623Z,78.45
2022-10-15T20:20:05.867Z,72.25
2022-10-15T20:22:51.667Z,72.88
2022-10-15T20:25:37.958Z,78.07
2022-10-15T20:28:23.415Z,76.90
2022-10-15T20:31:11.131Z,74.53
2022-10-15T20:33:58.515Z,81.20
2022-10-15T20:36:44.229Z,74.82
2022-10-15T20:39:29.574Z,74.78
2022-10-15T20:42:15.278Z,76.35
2022-10-15T20:45:00.775Z,78.57
2022-10-15T20:47:51.283Z,80.80
2022-10-15T20:50:36.903Z,80.70
2022-10-15T20:53:24.501Z,68.25
2022-10-15T20:56:10.458Z,75.03
2022-10-15T20:58:55.885Z,77.78
2022-10-15T21:01:41.550Z,76.15
2022-10-15T21:04:27.154Z,78.20
2022-10-15T21:07:13.121Z,80.05
2022-10-15T21:09:58.927Z,74.47
2022-10-15T21:12:44.799Z,76.13
2022-10-15T21:15:30.788Z,78.28
2022-10-15T21:18:16.474Z,76.75
2022-10-15T21:21:04.516Z,87.07
2022-10-15T21:23:50.738Z,85.80
2022-10-15T21:26:36.223Z,82.30
2022-10-15T21:29:22.359Z,88.15
2022-10-15T21:32:08.072Z,82.75
2022-10-15T21:34:54.051Z,72.35
2022-10-15T21:37:39.843Z,77.70
2022-10-15T21:40:25.738Z,80.38
2022-10-15T21:43:11.451Z,75.30
2022-10-15T21:46:07.608Z,79.10
2022-10-15T21:48:54.042Z,81.00
2022-10-15T21:51:40.216Z,90.25
2022-10-15T21:54:26.192Z,77.55
2022-10-15T21:57:11.724Z,81.03
2022-10-15T21:59:57.574Z,79.35
2022-10-15T22:02:43.694Z,76.28
2022-10-15T22:05:29.629Z,76.55
2022-10-15T22:08:16.183Z,72.43
2022-10-15T22:11:17.798Z,66.03
2022-10-15T22:14:05.805Z,76.10
2022-10-15T22:16:51.829Z,76.13
2022-10-15T22:19:37.575Z,79.75
2022-10-15T22:22:24.606Z,75.35
2022-10-15T22:25:11.308Z,74.03
2022-10-15T22:27:57.329Z,71.35
2022-10-15T22:30:43.031Z,76.05
2022-10-15T22:33:28.822Z,79.05
2022-10-15T22:36:20.850Z,70.88
2022-10-15T22:39:07.868Z,74.25
2022-10-15T22:41:53.465Z,77.20
2022-10-15T22:44:39.011Z,81.45
2022-10-15T22:47:24.686Z,75.90
2022-10-15T22:50:10.502Z,76.18
2022-10-15T22:52:56.097Z,77.05
2022-10-15T22:55:41.662Z,76.10
2022-10-15T22:58:29.229Z,81.78
2022-10-15T23:01:15.203Z,73.55
2022-10-15T23:04:04.471Z,81.47
2022-10-15T23:06:49.950Z,79.93
2022-10-15T23:09:35.623Z,74.85
2022-10-15T23:12:22.615Z,84.60
2022-10-15T23:15:08.743Z,82.07
2022-10-15T23:17:54.269Z,80.78
2022-10-15T23:20:40.075Z,72.32
2022-10-15T23:23:25.931Z,79.80
2022-10-15T23:26:14.251Z,80.35
2022-10-15T23:29:01.501Z,71.72
2022-10-15T23:31:48.192Z,79.28
2022-10-15T23:34:33.523Z,75.35
2022-10-15T23:37:19.870Z,80.13
2022-10-15T23:40:05.881Z,70.93
2022-10-15T23:42:51.626Z,74.63
2022-10-15T23:45:39.358Z,71.90
2022-10-15T23:48:28.052Z,71.25
2022-10-15T23:51:34.839Z,72.38
2022-10-15T23:54:20.618Z,73.35
2022-10-15T23:57:06.195Z,72.30
2022-10-15T23:59:52.079Z,80.13
